createdAt,value
2023-03-31T00:03:55.717Z,34.94
2023-03-31T00:07:55.510Z,35.02
2023-03-31T00:11:55.512Z,35.02
2023-03-31T00:15:55.508Z,35.02
2023-03-31T00:19:55.450Z,35.07
2023-03-31T00:23:55.492Z,35.13
2023-03-31T00:27:55.442Z,35.18
2023-03-31T00:31:55.476Z,35.09
2023-03-31T00:35:55.559Z,35.07
2023-03-31T00:39:55.434Z,35.08
2023-03-31T00:43:55.444Z,35.07
2023-03-31T00:47:55.619Z,35.04
2023-03-31T00:51:55.484Z,35.07
2023-03-31T00:55:55.504Z,35.06
2023-03-31T00:59:55.507Z,34.99
2023-03-31T01:03:55.622Z,34.99
2023-03-31T01:07:55.594Z,35.01
2023-03-31T01:11:55.597Z,35.05
2023-03-31T01:15:55.644Z,34.98
2023-03-31T01:19:55.691Z,34.99
2023-03-31T01:23:55.760Z,35.02
2023-03-31T01:27:55.826Z,35.03
2023-03-31T01:31:55.876Z,34.98
2023-03-31T01:35:55.938Z,34.86
2023-03-31T01:39:55.930Z,34.81
2023-03-31T01:43:56.005Z,34.81
2023-03-31T01:47:56.079Z,34.70
2023-03-31T01:51:56.152Z,34.41
2023-03-31T01:55:56.180Z,34.37
2023-03-31T01:59:56.245Z,34.21
2023-03-31T02:03:56.435Z,34.28
2023-03-31T02:07:56.439Z,34.32
2023-03-31T02:11:56.481Z,34.46
2023-03-31T02:15:56.623Z,34.47
2023-03-31T02:19:56.598Z,34.53
2023-03-31T02:23:56.712Z,34.60
2023-03-31T02:27:56.803Z,34.67
2023-03-31T02:31:57.003Z,34.72
2023-03-31T02:35:57.044Z,34.75
2023-03-31T02:39:57.121Z,34.78
2023-03-31T02:43:57.220Z,34.73
2023-03-31T02:47:57.393Z,34.72
2023-03-31T02:51:57.432Z,34.73
2023-03-31T02:55:57.622Z,34.70
2023-03-31T02:59:57.636Z,34.68
2023-03-31T03:03:57.739Z,34.63
2023-03-31T03:07:57.805Z,34.61
2023-03-31T03:11:57.870Z,34.70
2023-03-31T03:15:58.001Z,34.73
2023-03-31T03:19:58.103Z,34.65
2023-03-31T03:23:58.240Z,34.74
2023-03-31T03:27:58.383Z,34.79
2023-03-31T03:31:58.508Z,34.80
2023-03-31T03:35:58.644Z,34.86
2023-03-31T03:39:58.797Z,34.90
2023-03-31T03:43:58.884Z,34.93
2023-03-31T03:47:59.123Z,35.01
2023-03-31T03:51:59.182Z,35.02
2023-03-31T03:55:59.367Z,35.02
2023-03-31T03:59:59.496Z,35.07
2023-03-31T04:03:59.628Z,35.08
2023-03-31T04:07:59.745Z,35.12
2023-03-31T04:11:59.859Z,35.13
2023-03-31T04:16:00.058Z,35.22
2023-03-31T04:20:00.163Z,35.24
2023-03-31T04:24:00.293Z,35.29
2023-03-31T04:28:00.459Z,35.26
2023-03-31T04:32:00.693Z,35.32
2023-03-31T04:36:00.852Z,35.32
2023-03-31T04:40:00.984Z,35.32
2023-03-31T04:44:01.142Z,35.26
2023-03-31T04:48:01.389Z,35.32
2023-03-31T04:52:01.480Z,35.36
2023-03-31T04:56:01.650Z,35.78
2023-03-31T05:00:01.795Z,35.98
2023-03-31T05:04:01.850Z,36.09
2023-03-31T05:08:01.979Z,36.22
2023-03-31T05:12:02.061Z,36.22
2023-03-31T05:16:02.161Z,36.27
2023-03-31T05:20:02.221Z,36.38
2023-03-31T05:24:02.294Z,36.39
2023-03-31T05:28:02.379Z,36.53
2023-03-31T05:32:02.476Z,36.57
2023-03-31T05:36:03.029Z,36.62
2023-03-31T05:40:03.004Z,37.19
2023-03-31T05:44:02.978Z,38.09
2023-03-31T05:48:02.988Z,39.01
2023-03-31T05:52:02.717Z,40.23
2023-03-31T05:56:03.234Z,42.47
2023-03-31T06:00:03.801Z,43.62
2023-03-31T06:04:03.151Z,43.91
2023-03-31T06:08:03.328Z,44.59
2023-03-31T06:12:03.453Z,45.88
2023-03-31T06:16:03.570Z,45.34
2023-03-31T06:20:12.901Z,45.27
2023-03-31T06:24:04.602Z,45.16
2023-03-31T06:28:03.671Z,44.83
2023-03-31T06:32:04.051Z,44.47
2023-03-31T06:36:03.627Z,44.23
2023-03-31T06:40:03.608Z,44.01
2023-03-31T06:44:03.538Z,43.85
2023-03-31T06:48:03.510Z,46.45
2023-03-31T06:52:03.506Z,47.46
2023-03-31T06:56:03.615Z,47.71
2023-03-31T07:00:03.527Z,49.20
2023-03-31T07:04:03.337Z,50.13
2023-03-31T07:08:03.300Z,50.42
2023-03-31T07:12:03.262Z,50.42
2023-03-31T07:16:03.331Z,50.55
2023-03-31T07:20:03.524Z,51.15
2023-03-31T07:24:03.155Z,51.83
2023-03-31T07:28:03.147Z,52.04
2023-03-31T07:32:03.164Z,52.58
2023-03-31T07:36:11.840Z,52.67
2023-03-31T07:40:04.534Z,53.33
2023-03-31T07:44:03.054Z,53.96
2023-03-31T07:48:03.586Z,53.70
2023-03-31T07:52:03.360Z,53.31
2023-03-31T07:56:03.504Z,53.33
2023-03-31T08:00:03.584Z,53.02
2023-03-31T08:04:03.753Z,53.28
2023-03-31T08:08:04.029Z,53.34
2023-03-31T08:12:03.857Z,52.92
2023-03-31T08:16:04.011Z,52.88
2023-03-31T08:20:07.532Z,53.22
2023-03-31T08:24:03.888Z,53.19
2023-03-31T08:28:03.884Z,53.52
2023-03-31T08:32:03.856Z,53.34
2023-03-31T08:36:03.826Z,53.26
2023-03-31T08:40:04.042Z,53.69
2023-03-31T08:44:04.060Z,53.61
2023-03-31T08:48:05.919Z,53.51
2023-03-31T08:52:05.515Z,53.27
2023-03-31T08:56:03.680Z,52.99
2023-03-31T09:00:04.059Z,52.17
2023-03-31T09:04:05.699Z,51.01
2023-03-31T09:08:03.472Z,50.01
2023-03-31T09:12:03.462Z,49.22
2023-03-31T09:16:03.477Z,48.82
2023-03-31T09:20:03.355Z,48.28
2023-03-31T09:24:03.337Z,48.05
2023-03-31T09:28:03.343Z,47.77
2023-03-31T09:32:03.278Z,47.71
2023-03-31T09:36:03.348Z,47.99
2023-03-31T09:40:03.567Z,48.18
2023-03-31T09:44:03.544Z,47.77
2023-03-31T09:48:03.492Z,49.14
2023-03-31T09:52:04.096Z,49.66
2023-03-31T09:56:04.863Z,51.15
2023-03-31T10:00:03.864Z,52.14
2023-03-31T10:04:03.963Z,52.38
2023-03-31T10:08:03.917Z,52.48
2023-03-31T10:12:04.078Z,52.61
2023-03-31T10:16:04.028Z,52.37
2023-03-31T10:20:03.951Z,51.66
2023-03-31T10:24:03.950Z,52.16
2023-03-31T10:28:03.970Z,52.08
2023-03-31T10:32:04.067Z,51.82
2023-03-31T10:36:04.098Z,51.72
2023-03-31T10:40:04.068Z,51.39
2023-03-31T10:44:03.941Z,51.20
2023-03-31T10:48:04.133Z,51.23
2023-03-31T10:52:03.957Z,51.45
2023-03-31T10:56:03.943Z,52.10
2023-03-31T11:00:03.937Z,52.67
2023-03-31T11:04:04.011Z,52.84
2023-03-31T11:08:04.009Z,52.74
2023-03-31T11:12:04.084Z,52.21
2023-03-31T11:16:04.154Z,51.82
2023-03-31T11:20:04.108Z,51.93
2023-03-31T11:24:04.101Z,52.26
2023-03-31T11:28:04.148Z,52.96
2023-03-31T11:32:04.104Z,53.12
2023-03-31T11:36:04.066Z,52.97
2023-03-31T11:40:04.018Z,52.89
2023-03-31T11:44:04.100Z,52.84
2023-03-31T11:48:06.240Z,52.60
2023-03-31T11:52:03.976Z,52.77
2023-03-31T11:56:04.125Z,52.84
2023-03-31T12:01:54.157Z,53.88
2023-03-31T12:02:54.201Z,53.65
2023-03-31T12:03:54.143Z,53.74
2023-03-31T12:04:54.141Z,53.57
2023-03-31T12:05:54.280Z,53.55
2023-03-31T12:06:54.117Z,53.47
2023-03-31T12:07:54.096Z,53.46
2023-03-31T12:08:54.098Z,53.52
2023-03-31T12:09:54.088Z,53.53
2023-03-31T12:10:54.089Z,53.59
2023-03-31T12:11:54.069Z,53.58
2023-03-31T12:12:54.092Z,53.59
2023-03-31T12:13:54.062Z,53.55
2023-03-31T12:14:54.057Z,53.48
2023-03-31T12:15:54.070Z,53.41
2023-03-31T12:16:54.051Z,53.38
2023-03-31T12:17:54.091Z,53.29
2023-03-31T12:18:54.482Z,53.25
2023-03-31T12:19:54.044Z,53.32
2023-03-31T12:20:54.022Z,53.35
2023-03-31T12:21:54.030Z,53.35
2023-03-31T12:22:54.019Z,53.41
2023-03-31T12:23:54.029Z,53.64
2023-03-31T12:24:54.011Z,53.67
2023-03-31T12:25:53.981Z,53.83
2023-03-31T12:26:53.978Z,53.89
2023-03-31T12:27:53.980Z,53.88
2023-03-31T12:28:53.949Z,53.95
2023-03-31T12:29:53.934Z,53.99
2023-03-31T12:30:55.004Z,54.01
2023-03-31T12:31:53.978Z,54.07
2023-03-31T12:32:53.946Z,54.10
2023-03-31T12:33:53.922Z,54.25
2023-03-31T12:34:53.914Z,54.32
2023-03-31T12:35:53.990Z,54.38
2023-03-31T12:36:55.518Z,54.55
2023-03-31T12:37:53.912Z,54.62
2023-03-31T12:38:53.912Z,54.79
2023-03-31T12:39:53.895Z,54.92
2023-03-31T12:40:53.869Z,55.19
2023-03-31T12:41:53.885Z,55.32
2023-03-31T12:42:53.893Z,55.51
2023-03-31T12:43:53.858Z,55.69
2023-03-31T12:44:53.866Z,55.77
2023-03-31T12:45:53.843Z,55.87
2023-03-31T12:46:53.854Z,55.94
2023-03-31T12:47:53.897Z,56.00
2023-03-31T12:48:55.320Z,56.05
2023-03-31T12:49:53.835Z,56.10
2023-03-31T12:50:53.810Z,56.20
2023-03-31T12:51:53.821Z,56.22
2023-03-31T12:52:53.791Z,56.21
2023-03-31T12:53:53.818Z,56.16
2023-03-31T12:54:53.808Z,56.14
2023-03-31T12:55:53.770Z,56.23
2023-03-31T12:56:53.823Z,56.23
2023-03-31T12:57:53.790Z,56.16
2023-03-31T12:58:53.758Z,56.16
2023-03-31T12:59:53.743Z,56.16
2023-03-31T13:00:53.825Z,56.20
2023-03-31T13:01:53.831Z,56.19
2023-03-31T13:02:53.878Z,56.29
2023-03-31T13:03:53.820Z,56.41
2023-03-31T13:04:53.815Z,56.47
2023-03-31T13:05:53.837Z,56.54
2023-03-31T13:06:53.863Z,56.56
2023-03-31T13:07:53.860Z,56.61
2023-03-31T13:08:53.847Z,56.58
2023-03-31T13:09:53.920Z,56.41
2023-03-31T13:10:53.960Z,56.36
2023-03-31T13:11:53.918Z,56.35
2023-03-31T13:12:53.944Z,56.29
2023-03-31T13:14:00.305Z,56.35
2023-03-31T13:14:54.962Z,56.43
2023-03-31T13:15:53.939Z,56.36
2023-03-31T13:16:55.575Z,56.28
2023-03-31T13:17:53.985Z,56.26
2023-03-31T13:18:53.923Z,56.22
2023-03-31T13:19:53.949Z,56.24
2023-03-31T13:20:53.931Z,56.24
2023-03-31T13:21:53.929Z,56.37
2023-03-31T13:22:53.943Z,56.44
2023-03-31T13:23:53.887Z,56.41
2023-03-31T13:24:53.892Z,56.41
2023-03-31T13:25:53.901Z,56.51
2023-03-31T13:26:54.896Z,56.53
2023-03-31T13:27:53.947Z,56.53
2023-03-31T13:28:53.873Z,56.63
2023-03-31T13:29:53.847Z,56.61
2023-03-31T13:30:53.851Z,56.70
2023-03-31T13:31:53.875Z,56.62
2023-03-31T13:32:53.936Z,56.58
2023-03-31T13:33:53.913Z,56.63
2023-03-31T13:34:53.919Z,56.60
2023-03-31T13:35:54.011Z,56.58
2023-03-31T13:36:53.995Z,56.54
2023-03-31T13:37:54.011Z,56.52
2023-03-31T13:38:54.069Z,56.50
2023-03-31T13:39:54.040Z,56.52
2023-03-31T13:40:54.090Z,56.55
2023-03-31T13:41:54.122Z,56.57
2023-03-31T13:42:54.131Z,56.54
2023-03-31T13:43:54.197Z,56.69
2023-03-31T13:44:54.209Z,56.69
2023-03-31T13:45:54.259Z,56.75
2023-03-31T13:46:54.311Z,56.77
2023-03-31T13:47:54.307Z,56.87
2023-03-31T13:48:54.288Z,56.86
2023-03-31T13:49:54.633Z,56.96
2023-03-31T13:50:54.338Z,56.96
2023-03-31T13:51:54.368Z,56.89
2023-03-31T13:52:54.377Z,56.89
2023-03-31T13:53:54.433Z,56.92
2023-03-31T13:54:54.433Z,56.92
2023-03-31T13:55:54.446Z,56.85
2023-03-31T13:56:54.520Z,56.86
2023-03-31T13:57:54.524Z,56.85
2023-03-31T13:58:54.566Z,56.79
2023-03-31T13:59:54.669Z,56.71
2023-03-31T14:00:54.602Z,56.65
2023-03-31T14:01:54.670Z,56.66
2023-03-31T14:02:54.742Z,56.72
2023-03-31T14:03:54.796Z,56.70
2023-03-31T14:04:54.696Z,56.78
2023-03-31T14:05:54.715Z,56.88
2023-03-31T14:06:54.743Z,56.90
2023-03-31T14:07:54.757Z,56.89
2023-03-31T14:08:54.786Z,56.95
2023-03-31T14:09:54.801Z,56.95
2023-03-31T14:10:54.880Z,57.00
2023-03-31T14:11:54.841Z,56.95
2023-03-31T14:12:54.876Z,56.95
2023-03-31T14:13:54.883Z,57.00
2023-03-31T14:14:54.928Z,57.02
2023-03-31T14:15:55.030Z,57.00
2023-03-31T14:16:55.007Z,56.98
2023-03-31T14:17:55.104Z,57.03
2023-03-31T14:18:55.047Z,56.96
2023-03-31T14:19:55.095Z,56.97
2023-03-31T14:20:55.168Z,56.95
2023-03-31T14:21:55.143Z,56.91
2023-03-31T14:22:55.535Z,56.90
2023-03-31T14:23:55.224Z,56.94
2023-03-31T14:24:55.239Z,56.94
2023-03-31T14:25:55.254Z,56.98
2023-03-31T14:26:55.300Z,57.03
2023-03-31T14:27:55.342Z,57.11
2023-03-31T14:28:55.396Z,57.18
2023-03-31T14:29:55.380Z,57.14
2023-03-31T14:30:55.422Z,57.13
2023-03-31T14:31:55.553Z,57.12
2023-03-31T14:32:55.500Z,57.17
2023-03-31T14:33:55.519Z,57.19
2023-03-31T14:34:55.539Z,57.23
2023-03-31T14:35:55.565Z,57.21
2023-03-31T14:36:55.639Z,57.17
2023-03-31T14:37:55.635Z,57.18
2023-03-31T14:38:55.673Z,57.09
2023-03-31T14:39:55.708Z,57.04
2023-03-31T14:40:55.750Z,57.03
2023-03-31T14:41:55.751Z,56.94
2023-03-31T14:42:55.797Z,56.89
2023-03-31T14:43:55.834Z,56.90
2023-03-31T14:44:55.872Z,56.99
2023-03-31T14:45:55.884Z,57.05
2023-03-31T14:46:56.013Z,56.97
2023-03-31T14:47:57.487Z,56.97
2023-03-31T14:48:56.010Z,56.97
2023-03-31T14:49:56.017Z,56.86
2023-03-31T14:50:56.069Z,56.90
2023-03-31T14:51:56.055Z,56.86
2023-03-31T14:52:56.114Z,56.79
2023-03-31T14:53:56.133Z,56.86
2023-03-31T14:54:56.172Z,56.88
2023-03-31T14:55:59.207Z,56.91
2023-03-31T14:56:56.238Z,56.92
2023-03-31T14:57:56.206Z,56.97
2023-03-31T14:58:56.168Z,56.85
2023-03-31T14:59:56.177Z,56.90
2023-03-31T15:00:56.265Z,56.85
2023-03-31T15:01:56.136Z,56.69
2023-03-31T15:02:56.177Z,56.51
2023-03-31T15:03:56.110Z,56.56
2023-03-31T15:04:56.109Z,56.45
2023-03-31T15:05:56.125Z,56.28
2023-03-31T15:06:56.074Z,56.00
2023-03-31T15:07:56.132Z,55.97
2023-03-31T15:08:56.079Z,55.84
2023-03-31T15:09:56.074Z,55.81
2023-03-31T15:11:02.274Z,55.90
2023-03-31T15:11:57.087Z,55.88
2023-03-31T15:12:56.061Z,56.00
2023-03-31T15:14:05.127Z,56.07
2023-03-31T15:14:57.052Z,56.03
2023-03-31T15:15:56.067Z,56.19
2023-03-31T15:16:56.111Z,56.28
2023-03-31T15:17:56.013Z,56.28
2023-03-31T15:18:56.021Z,56.22
2023-03-31T15:19:56.032Z,56.25
2023-03-31T15:20:55.982Z,56.26
2023-03-31T15:21:55.985Z,56.24
2023-03-31T15:22:55.989Z,56.17
2023-03-31T15:23:55.982Z,56.09
2023-03-31T15:24:55.983Z,56.03
2023-03-31T15:25:55.992Z,56.04
2023-03-31T15:26:55.996Z,55.97
2023-03-31T15:27:55.957Z,55.88
2023-03-31T15:28:56.002Z,55.90
2023-03-31T15:29:56.062Z,55.96
2023-03-31T15:31:09.070Z,56.00
2023-03-31T15:31:57.171Z,56.12
2023-03-31T15:33:01.446Z,56.10
2023-03-31T15:33:57.126Z,56.13
2023-03-31T15:34:57.251Z,56.09
2023-03-31T15:35:56.337Z,56.04
2023-03-31T15:36:56.307Z,55.96
2023-03-31T15:37:56.377Z,55.89
2023-03-31T15:38:56.330Z,55.79
2023-03-31T15:39:56.392Z,55.78
2023-03-31T15:40:56.420Z,55.82
2023-03-31T15:41:56.410Z,55.86
2023-03-31T15:43:06.450Z,55.86
2023-03-31T15:43:57.446Z,55.85
2023-03-31T15:44:56.447Z,55.83
2023-03-31T15:45:56.478Z,55.82
2023-03-31T15:46:56.430Z,55.81
2023-03-31T15:47:56.431Z,55.79
2023-03-31T15:48:56.707Z,55.71
2023-03-31T15:49:56.404Z,55.62
2023-03-31T15:50:56.409Z,55.58
2023-03-31T15:51:56.403Z,55.57
2023-03-31T15:52:56.409Z,55.54
2023-03-31T15:53:56.379Z,55.50
2023-03-31T15:54:56.387Z,55.42
2023-03-31T15:55:56.363Z,55.35
2023-03-31T15:56:56.433Z,55.46
2023-03-31T15:57:56.422Z,55.54
2023-03-31T15:58:56.492Z,55.63
2023-03-31T15:59:57.183Z,55.74
2023-03-31T16:00:56.516Z,55.69
2023-03-31T16:01:56.706Z,55.67
2023-03-31T16:02:56.666Z,55.58
2023-03-31T16:03:56.570Z,55.56
2023-03-31T16:04:56.663Z,55.47
2023-03-31T16:05:56.700Z,55.51
2023-03-31T16:06:56.704Z,55.45
2023-03-31T16:07:56.748Z,55.48
2023-03-31T16:08:56.750Z,55.48
2023-03-31T16:09:56.780Z,55.47
2023-03-31T16:10:56.797Z,55.42
2023-03-31T16:11:56.833Z,55.46
2023-03-31T16:12:56.909Z,55.38
2023-03-31T16:13:56.901Z,55.37
2023-03-31T16:14:56.916Z,55.29
2023-03-31T16:15:57.002Z,55.16
2023-03-31T16:16:56.968Z,55.13
2023-03-31T16:17:57.060Z,55.12
2023-03-31T16:18:57.031Z,55.12
2023-03-31T16:19:57.087Z,55.14
2023-03-31T16:20:57.094Z,55.13
2023-03-31T16:21:57.176Z,55.24
2023-03-31T16:22:57.199Z,55.27
2023-03-31T16:23:57.182Z,55.28
2023-03-31T16:24:57.225Z,55.20
2023-03-31T16:25:57.260Z,55.23
2023-03-31T16:26:57.663Z,55.16
2023-03-31T16:27:57.357Z,55.12
2023-03-31T16:28:57.405Z,55.08
2023-03-31T16:29:57.408Z,55.17
2023-03-31T16:30:57.468Z,55.14
2023-03-31T16:31:57.521Z,55.17
2023-03-31T16:32:58.220Z,55.25
2023-03-31T16:33:57.569Z,55.23
2023-03-31T16:34:57.581Z,55.26
2023-03-31T16:35:57.655Z,55.31
2023-03-31T16:36:57.720Z,55.28
2023-03-31T16:37:57.702Z,55.26
2023-03-31T16:38:58.454Z,55.26
2023-03-31T16:39:57.766Z,55.16
2023-03-31T16:40:57.818Z,55.07
2023-03-31T16:41:57.879Z,55.07
2023-03-31T16:42:57.937Z,54.99
2023-03-31T16:43:57.946Z,54.97
2023-03-31T16:45:10.116Z,55.08
2023-03-31T16:45:58.987Z,55.18
2023-03-31T16:46:57.981Z,55.19
2023-03-31T16:48:02.017Z,55.22
2023-03-31T16:48:59.100Z,55.35
2023-03-31T16:49:57.982Z,55.42
2023-03-31T16:50:58.001Z,55.53
2023-03-31T16:51:57.940Z,55.56
2023-03-31T16:52:57.951Z,55.57
2023-03-31T16:53:59.365Z,55.59
2023-03-31T16:54:57.912Z,55.68
2023-03-31T16:55:57.924Z,55.63
2023-03-31T16:56:57.956Z,55.75
2023-03-31T16:57:57.906Z,55.64
2023-03-31T16:58:57.890Z,55.68
2023-03-31T16:59:59.039Z,55.68
2023-03-31T17:00:58.036Z,55.73
2023-03-31T17:01:57.966Z,55.85
2023-03-31T17:02:58.182Z,56.02
2023-03-31T17:03:58.120Z,55.93
2023-03-31T17:05:06.279Z,55.93
2023-03-31T17:05:59.557Z,55.87
2023-03-31T17:06:58.093Z,55.80
2023-03-31T17:07:58.096Z,55.90
2023-03-31T17:08:58.075Z,55.88
2023-03-31T17:09:58.067Z,55.79
2023-03-31T17:10:58.048Z,55.74
2023-03-31T17:11:58.030Z,55.69
2023-03-31T17:12:58.097Z,55.66
2023-03-31T17:13:58.042Z,55.63
2023-03-31T17:14:58.034Z,55.65
2023-03-31T17:16:59.078Z,55.72
2023-03-31T17:17:58.026Z,55.66
2023-03-31T17:18:58.008Z,55.63
2023-03-31T17:19:58.001Z,55.67
2023-03-31T17:20:57.999Z,55.67
2023-03-31T17:21:57.992Z,55.67
2023-03-31T17:22:57.972Z,55.65
2023-03-31T17:24:00.209Z,55.61
2023-03-31T17:24:57.973Z,55.64
2023-03-31T17:25:57.986Z,55.60
2023-03-31T17:26:57.941Z,55.62
2023-03-31T17:27:57.928Z,55.56
2023-03-31T17:28:57.946Z,55.51
2023-03-31T17:29:57.924Z,55.46
2023-03-31T17:30:57.952Z,55.45
2023-03-31T17:31:58.098Z,55.43
2023-03-31T17:32:57.927Z,55.38
2023-03-31T17:33:57.914Z,55.38
2023-03-31T17:34:57.919Z,54.98
2023-03-31T17:35:57.885Z,55.07
2023-03-31T17:36:57.969Z,55.14
2023-03-31T17:37:57.887Z,55.13
2023-03-31T17:38:57.892Z,55.11
2023-03-31T17:39:57.890Z,55.13
2023-03-31T17:40:57.861Z,55.12
2023-03-31T17:41:57.873Z,55.08
2023-03-31T17:42:57.845Z,55.06
2023-03-31T17:43:57.858Z,55.02
2023-03-31T17:44:57.844Z,55.04
2023-03-31T17:45:57.916Z,55.02
2023-03-31T17:46:57.806Z,54.99
2023-03-31T17:47:57.824Z,54.96
2023-03-31T17:48:57.822Z,54.96
2023-03-31T17:49:57.805Z,54.92
2023-03-31T17:50:57.834Z,54.92
2023-03-31T17:51:57.804Z,54.89
2023-03-31T17:52:57.765Z,54.88
2023-03-31T17:53:57.786Z,54.83
2023-03-31T17:54:57.751Z,54.80
2023-03-31T17:55:57.760Z,54.85
2023-03-31T17:56:57.797Z,54.80
2023-03-31T17:57:57.750Z,54.78
2023-03-31T17:58:57.745Z,54.75
2023-03-31T17:59:57.758Z,54.76
2023-03-31T18:00:57.737Z,54.73
2023-03-31T18:01:57.802Z,54.70
2023-03-31T18:02:57.892Z,54.69
2023-03-31T18:03:57.890Z,54.68
2023-03-31T18:04:57.998Z,54.61
2023-03-31T18:05:57.949Z,54.62
2023-03-31T18:06:58.008Z,54.59
2023-03-31T18:07:58.041Z,54.60
2023-03-31T18:08:58.118Z,54.58
2023-03-31T18:09:58.173Z,54.56
2023-03-31T18:10:58.226Z,54.51
2023-03-31T18:11:58.247Z,54.49
2023-03-31T18:12:58.307Z,54.50
2023-03-31T18:13:58.399Z,54.45
2023-03-31T18:14:58.389Z,54.48
2023-03-31T18:15:58.506Z,54.41
2023-03-31T18:16:58.545Z,54.43
2023-03-31T18:17:58.666Z,54.37
2023-03-31T18:18:58.604Z,54.38
2023-03-31T18:19:58.664Z,54.38
2023-03-31T18:20:58.678Z,54.38
2023-03-31T18:21:58.743Z,54.32
2023-03-31T18:22:58.815Z,54.32
2023-03-31T18:23:58.822Z,54.32
2023-03-31T18:24:58.878Z,54.28
2023-03-31T18:25:59.007Z,54.25
2023-03-31T18:26:58.956Z,54.24
2023-03-31T18:27:59.040Z,54.22
2023-03-31T18:28:59.084Z,54.16
2023-03-31T18:29:59.125Z,54.17
2023-03-31T18:30:59.184Z,54.13
2023-03-31T18:31:59.299Z,54.09
2023-03-31T18:32:59.344Z,54.03
2023-03-31T18:33:59.310Z,54.04
2023-03-31T18:34:59.349Z,54.03
2023-03-31T18:35:59.441Z,53.99
2023-03-31T18:36:59.535Z,54.00
2023-03-31T18:37:59.521Z,54.01
2023-03-31T18:38:59.567Z,53.99
2023-03-31T18:39:59.591Z,53.96
2023-03-31T18:40:59.671Z,53.91
2023-03-31T18:41:59.750Z,53.90
2023-03-31T18:42:59.765Z,53.88
2023-03-31T18:43:59.815Z,53.88
2023-03-31T18:44:59.848Z,53.82
2023-03-31T18:45:59.906Z,53.79
2023-03-31T18:46:59.994Z,53.81
2023-03-31T18:48:00.110Z,53.76
2023-03-31T18:49:00.074Z,53.74
2023-03-31T18:50:00.156Z,53.76
2023-03-31T18:51:00.174Z,53.72
2023-03-31T18:52:00.239Z,53.71
2023-03-31T18:53:00.303Z,53.67
2023-03-31T18:54:00.394Z,53.64
2023-03-31T18:55:00.370Z,53.61
2023-03-31T18:56:00.420Z,53.65
2023-03-31T18:57:00.488Z,53.57
2023-03-31T18:58:00.507Z,53.54
2023-03-31T18:59:00.592Z,53.52
2023-03-31T19:00:00.624Z,53.53
2023-03-31T19:01:00.688Z,53.47
2023-03-31T19:02:00.762Z,53.47
2023-03-31T19:03:00.855Z,53.40
2023-03-31T19:04:00.818Z,53.44
2023-03-31T19:05:00.845Z,53.43
2023-03-31T19:06:00.898Z,53.40
2023-03-31T19:07:00.963Z,53.35
2023-03-31T19:08:01.017Z,53.35
2023-03-31T19:09:01.065Z,53.35
2023-03-31T19:10:01.141Z,53.30
2023-03-31T19:11:01.184Z,53.31
2023-03-31T19:12:01.200Z,53.29
2023-03-31T19:13:01.264Z,53.30
2023-03-31T19:14:01.343Z,53.30
2023-03-31T19:15:01.388Z,53.23
2023-03-31T19:16:01.436Z,53.25
2023-03-31T19:17:01.683Z,53.19
2023-03-31T19:18:01.609Z,53.16
2023-03-31T19:19:01.614Z,53.12
2023-03-31T19:20:01.702Z,53.13
2023-03-31T19:21:01.736Z,53.10
2023-03-31T19:22:01.765Z,53.06
2023-03-31T19:23:01.801Z,53.06
2023-03-31T19:24:01.852Z,53.07
2023-03-31T19:25:01.936Z,53.04
2023-03-31T19:26:01.975Z,53.06
2023-03-31T19:27:02.058Z,53.01
2023-03-31T19:28:02.086Z,52.98
2023-03-31T19:29:02.144Z,52.96
2023-03-31T19:30:02.172Z,52.94
2023-03-31T19:31:02.206Z,52.89
2023-03-31T19:32:02.329Z,52.91
2023-03-31T19:33:02.395Z,52.90
2023-03-31T19:34:02.411Z,52.85
2023-03-31T19:35:02.442Z,52.80
2023-03-31T19:36:02.482Z,52.81
2023-03-31T19:37:02.545Z,52.80
2023-03-31T19:38:02.635Z,52.76
2023-03-31T19:39:02.661Z,52.75
2023-03-31T19:40:02.687Z,52.72
2023-03-31T19:41:02.768Z,52.75
2023-03-31T19:42:02.816Z,52.68
2023-03-31T19:43:02.857Z,52.66
2023-03-31T19:44:02.906Z,52.66
2023-03-31T19:45:02.939Z,52.61
2023-03-31T19:46:03.093Z,52.62
2023-03-31T19:47:03.052Z,52.60
2023-03-31T19:48:03.222Z,52.53
2023-03-31T19:49:03.214Z,52.48
2023-03-31T19:50:03.246Z,52.54
2023-03-31T19:51:03.288Z,52.51
2023-03-31T19:52:03.371Z,52.49
2023-03-31T19:53:03.409Z,52.48
2023-03-31T19:54:03.485Z,52.41
2023-03-31T19:55:03.532Z,52.44
2023-03-31T19:56:03.591Z,52.43
2023-03-31T19:57:03.717Z,52.43
2023-03-31T19:58:03.685Z,52.39
2023-03-31T19:59:03.770Z,52.41
2023-03-31T20:00:05.326Z,52.36
2023-03-31T20:01:03.889Z,52.37
2023-03-31T20:02:04.076Z,52.34
2023-03-31T20:03:04.077Z,52.31
2023-03-31T20:04:04.131Z,52.30
2023-03-31T20:05:04.074Z,52.26
2023-03-31T20:06:04.150Z,52.22
2023-03-31T20:07:04.169Z,52.25
2023-03-31T20:08:04.221Z,52.20
2023-03-31T20:09:04.337Z,52.22
2023-03-31T20:10:04.384Z,52.15
2023-03-31T20:11:04.497Z,52.16
2023-03-31T20:12:04.508Z,52.20
2023-03-31T20:13:04.481Z,52.09
2023-03-31T20:14:04.539Z,52.10
2023-03-31T20:15:04.597Z,52.08
2023-03-31T20:16:04.699Z,52.03
2023-03-31T20:17:04.724Z,52.02
2023-03-31T20:18:04.814Z,52.00
2023-03-31T20:19:04.850Z,51.94
2023-03-31T20:20:04.879Z,51.95
2023-03-31T20:21:04.917Z,51.99
2023-03-31T20:22:04.974Z,51.99
2023-03-31T20:23:05.029Z,51.96
2023-03-31T20:24:05.164Z,51.88
2023-03-31T20:25:05.162Z,51.93
2023-03-31T20:26:05.210Z,51.88
2023-03-31T20:27:05.265Z,51.90
2023-03-31T20:28:05.325Z,51.85
2023-03-31T20:29:05.361Z,51.81
2023-03-31T20:30:05.441Z,51.82
2023-03-31T20:31:05.521Z,51.84
2023-03-31T20:32:05.539Z,51.79
2023-03-31T20:33:05.626Z,51.75
2023-03-31T20:34:05.637Z,51.77
2023-03-31T20:35:05.741Z,51.77
2023-03-31T20:36:05.799Z,51.73
2023-03-31T20:37:05.843Z,51.72
2023-03-31T20:38:05.904Z,51.70
2023-03-31T20:39:05.942Z,51.69
2023-03-31T20:40:06.032Z,51.68
2023-03-31T20:41:06.049Z,51.62
2023-03-31T20:42:06.128Z,51.61
2023-03-31T20:43:06.194Z,51.61
2023-03-31T20:44:06.250Z,51.60
2023-03-31T20:45:06.281Z,51.56
2023-03-31T20:46:06.359Z,51.52
2023-03-31T20:47:06.494Z,51.52
2023-03-31T20:48:06.464Z,51.52
2023-03-31T20:49:06.520Z,51.51
2023-03-31T20:50:06.560Z,51.48
2023-03-31T20:51:06.652Z,51.47
2023-03-31T20:52:06.660Z,51.48
2023-03-31T20:53:06.750Z,51.46
2023-03-31T20:54:06.791Z,51.42
2023-03-31T20:55:06.860Z,51.35
2023-03-31T20:56:06.929Z,51.35
2023-03-31T20:57:07.035Z,51.32
2023-03-31T20:58:07.045Z,51.28
2023-03-31T20:59:07.083Z,51.20
2023-03-31T21:00:07.173Z,51.32
2023-03-31T21:01:07.268Z,51.27
2023-03-31T21:02:07.259Z,51.26
2023-03-31T21:03:07.364Z,51.22
2023-03-31T21:04:08.182Z,51.21
2023-03-31T21:05:07.470Z,51.17
2023-03-31T21:06:11.301Z,51.18
2023-03-31T21:07:07.501Z,51.17
2023-03-31T21:08:07.514Z,51.20
2023-03-31T21:09:07.517Z,51.17
2023-03-31T21:10:07.519Z,51.14
2023-03-31T21:11:08.044Z,51.15
2023-03-31T21:12:07.484Z,51.15
2023-03-31T21:13:07.464Z,51.07
2023-03-31T21:14:07.480Z,51.11
2023-03-31T21:15:07.461Z,51.04
2023-03-31T21:16:07.529Z,51.05
2023-03-31T21:17:07.610Z,51.06
2023-03-31T21:18:07.449Z,51.05
2023-03-31T21:19:07.449Z,50.93
2023-03-31T21:20:07.441Z,50.95
2023-03-31T21:21:07.446Z,51.01
2023-03-31T21:22:07.402Z,50.99
2023-03-31T21:23:07.442Z,50.95
2023-03-31T21:24:07.491Z,50.97
2023-03-31T21:25:07.520Z,50.88
2023-03-31T21:26:07.584Z,50.90
2023-03-31T21:27:07.663Z,50.90
2023-03-31T21:28:07.719Z,50.81
2023-03-31T21:29:07.806Z,50.76
2023-03-31T21:30:07.834Z,50.77
2023-03-31T21:31:07.930Z,50.75
2023-03-31T21:32:08.047Z,50.74
2023-03-31T21:33:08.062Z,50.68
2023-03-31T21:34:08.084Z,50.65
2023-03-31T21:35:08.138Z,50.65
2023-03-31T21:36:08.212Z,50.63
2023-03-31T21:37:08.267Z,50.63
2023-03-31T21:38:08.342Z,50.61
2023-03-31T21:39:08.373Z,50.56
2023-03-31T21:40:08.451Z,50.57
2023-03-31T21:41:08.490Z,50.55
2023-03-31T21:42:08.551Z,50.56
2023-03-31T21:43:08.628Z,50.55
2023-03-31T21:44:08.653Z,50.57
2023-03-31T21:45:08.755Z,50.57
2023-03-31T21:46:08.833Z,50.56
2023-03-31T21:47:08.829Z,50.52
2023-03-31T21:48:08.945Z,50.52
2023-03-31T21:49:08.946Z,50.49
2023-03-31T21:50:09.004Z,50.45
2023-03-31T21:51:09.079Z,50.48
2023-03-31T21:52:09.117Z,50.47
2023-03-31T21:53:09.182Z,50.49
2023-03-31T21:54:09.281Z,50.47
2023-03-31T21:55:09.306Z,50.48
2023-03-31T21:56:09.389Z,50.41